Time;durP1;ratioP1;P1;durP2;ratioP2;P2;SDS_P1;SDS_P2;PMS_P1;PMS_P2;Temp;Humidity;BMP_temperature;BMP_pressure;BME280_temperature;BME280_humidity;BME280_pressure;Samples;Min_cycle;Max_cycle;Signal;HPM_P1;HPM_P2
2022/03/03 00:01:31;;;;;;;15.55;10.15;;;2.70;95.80;;;;;;4838208;29;20113;-82
2022/03/03 00:04:36;;;;;;;27.92;15.30;;;2.70;95.70;;;;;;4867324;29;20037;-82
2022/03/03 00:11:00;;;;;;;15.77;9.38;;;2.70;97.30;;;;;;4852296;29;20761;-83
2022/03/03 00:17:24;;;;;;;20.52;10.82;;;2.60;96.20;;;;;;4845804;29;20059;-83
2022/03/03 00:37:25;;;;;;;26.80;14.57;;;2.70;93.30;;;;;;4865570;29;20038;-83
2022/03/03 01:14:42;;;;;;;11.82;8.05;;;2.50;93.20;;;;;;4988448;28;20034;-82
2022/03/03 01:28:46;;;;;;;;;;;;;;;;;;;;;
2022/03/03 02:21:20;;;;;;;8.77;5.75;;;2.30;92.60;;;;;;4871243;29;20060;-84
2022/03/03 02:28:09;;;;;;;19.63;10.00;;;2.20;92.60;;;;;;4952425;29;20047;-85
2022/03/03 02:44:34;;;;;;;10.02;5.72;;;2.10;91.90;;;;;;4876518;29;20673;-84
2022/03/03 03:14:45;;;;;;;9.27;5.35;;;2.00;92.80;;;;;;4913576;29;20115;-84
2022/03/03 03:17:57;;;;;;;;;;;;;;;;;;;;;
2022/03/03 03:21:17;;;;;;;7.85;5.65;;;1.90;92.90;;;;;;4943073;28;20030;-83
2022/03/03 03:31:50;;;;;;;7.53;5.70;;;1.80;93.50;;;;;;4855386;29;20090;-83
2022/03/03 03:55:45;;;;;;;13.13;7.22;;;1.80;95.50;;;;;;4820146;29;20079;-83
2022/03/03 04:30:22;;;;;;;11.35;7.35;;;1.90;95.20;;;;;;4900315;29;20054;-84
2022/03/03 04:50:41;;;;;;;11.88;7.20;;;2.00;95.70;;;;;;4967309;28;20038;-83
2022/03/03 05:17:18;;;;;;;15.57;8.38;;;1.60;97.30;;;;;;5001546;28;20092;-85
2022/03/03 05:23:13;;;;;;;;;;;1.70;97.90;;;;;;4983157;28;20066;-83
2022/03/03 05:26:15;;;;;;;13.15;8.38;;;1.70;95.60;;;;;;5103902;28;19914;-83
2022/03/03 05:29:42;;;;;;;15.95;8.48;;;1.80;95.10;;;;;;5110868;27;20047;-83
2022/03/03 05:32:23;;;;;;;13.80;8.10;;;1.90;94.50;;;;;;5077711;27;20061;-84
2022/03/03 05:35:30;;;;;;;14.02;8.10;;;2.00;94.10;;;;;;5123792;27;20106;-84
2022/03/03 05:38:08;;;;;;;19.13;8.15;;;2.00;93.40;;;;;;5088635;28;20040;-83
2022/03/03 05:41:15;;;;;;;12.23;7.60;;;2.10;92.70;;;;;;5121036;27;20073;-83
2022/03/03 05:43:47;;;;;;;15.88;7.65;;;2.10;93.50;;;;;;5116308;27;20529;-84
2022/03/03 05:46:18;;;;;;;11.68;8.15;;;2.10;93.60;;;;;;5102780;27;20498;-83
2022/03/03 05:49:20;;;;;;;15.80;8.23;;;2.10;92.80;;;;;;5123779;27;20075;-84
2022/03/03 05:51:54;;;;;;;14.00;8.43;;;2.10;92.20;;;;;;5117666;27;20054;-82
2022/03/03 05:54:32;;;;;;;13.43;8.10;;;2.10;93.70;;;;;;5072459;28;20032;-84
2022/03/03 05:59:50;;;;;;;12.05;8.63;;;2.20;93.80;;;;;;5086862;28;20414;-84
2022/03/03 06:03:00;;;;;;;14.73;8.93;;;2.20;94.40;;;;;;5064007;28;20119;-84
2022/03/03 06:06:08;;;;;;;13.48;8.48;;;2.30;94.20;;;;;;5065819;28;20543;-84
2022/03/03 06:08:57;;;;;;;15.35;8.75;;;2.30;93.10;;;;;;5060725;28;20047;-84
2022/03/03 06:11:26;;;;;;;17.95;7.88;;;2.40;92.40;;;;;;5066982;28;20064;-83
2022/03/03 06:16:59;;;;;;;13.07;8.50;;;2.60;93.20;;;;;;5068723;28;20032;-83
2022/03/03 06:20:18;;;;;;;16.13;8.93;;;2.70;92.40;;;;;;5112574;27;20038;-84
2022/03/03 06:22:31;;;;;;;12.10;7.88;;;2.80;91.30;;;;;;5108002;27;20024;-84
2022/03/03 06:24:57;;;;;;;16.58;9.13;;;2.90;90.50;;;;;;5121667;27;20164;-83
2022/03/03 06:27:26;;;;;;;13.38;8.88;;;3.00;91.10;;;;;;5121511;27;20126;-84
2022/03/03 06:30:09;;;;;;;13.05;8.50;;;3.10;91.30;;;;;;5103757;27;20478;-84
2022/03/03 06:32:38;;;;;;;14.50;9.70;;;3.10;91.10;;;;;;5096528;28;20032;-84
2022/03/03 06:35:04;;;;;;;15.63;9.88;;;3.20;90.90;;;;;;5115949;27;20038;-84
2022/03/03 06:37:45;;;;;;;15.23;9.30;;;3.30;91.30;;;;;;5094486;27;20024;-85
2022/03/03 06:40:30;;;;;;;11.32;7.57;;;3.40;92.40;;;;;;5097674;28;20029;-84
2022/03/03 06:43:00;;;;;;;13.20;9.50;;;3.50;91.80;;;;;;5124314;27;20031;-81
2022/03/03 06:45:26;;;;;;;18.92;9.98;;;3.60;91.70;;;;;;5106452;27;20030;-81
2022/03/03 06:48:00;;;;;;;14.50;9.80;;;3.70;92.00;;;;;;5125146;27;20450;-81
2022/03/03 06:50:45;;;;;;;13.57;8.88;;;3.70;89.90;;;;;;5120173;27;20035;-81
2022/03/03 06:57:09;;;;;;;13.23;9.55;;;3.90;90.00;;;;;;5041133;28;20036;-81
2022/03/03 07:02:39;;;;;;;20.88;9.55;;;4.20;90.20;;;;;;5037680;28;20381;-81
2022/03/03 07:05:36;;;;;;;16.33;9.43;;;4.20;86.60;;;;;;5038619;28;20547;-81
2022/03/03 07:08:49;;;;;;;16.55;9.15;;;4.40;86.40;;;;;;5114057;27;20066;-81
2022/03/03 07:11:55;;;;;;;16.58;9.93;;;4.50;85.00;;;;;;5021831;28;20072;-81
2022/03/03 07:15:00;;;;;;;19.70;9.82;;;4.60;84.70;;;;;;5004948;28;20066;-81
2022/03/03 07:17:29;;;;;;;14.93;9.18;;;4.70;84.70;;;;;;5020991;28;20546;-81
2022/03/03 07:23:52;;;;;;;34.38;13.38;;;4.90;84.20;;;;;;5020610;28;20575;-81
2022/03/03 07:26:21;;;;;;;30.17;15.75;;;4.90;83.50;;;;;;5016752;28;20512;-80
2022/03/03 07:28:52;;;;;;;19.42;10.50;;;5.00;83.30;;;;;;5023357;28;20053;-80
2022/03/03 07:31:38;;;;;;;14.40;8.55;;;5.10;82.90;;;;;;5031823;28;20043;-82
2022/03/03 07:34:07;;;;;;;20.10;9.77;;;5.20;82.80;;;;;;5115774;27;20451;-81
2022/03/03 07:37:26;;;;;;;15.07;8.98;;;5.20;82.60;;;;;;5117054;27;20102;-81
2022/03/03 07:40:05;;;;;;;15.25;8.57;;;5.30;82.20;;;;;;5056440;27;20044;-80
2022/03/03 07:42:55;;;;;;;18.27;9.52;;;5.40;81.40;;;;;;5109195;27;20016;-81
2022/03/03 07:45:21;;;;;;;21.63;9.77;;;5.50;81.00;;;;;;5096338;27;20043;-80
2022/03/03 07:48:03;;;;;;;;;;;;;;;;;;;;;
2022/03/03 07:53:49;;;;;;;21.85;9.75;;;5.80;80.50;;;;;;5067195;27;20509;-81
2022/03/03 07:56:46;;;;;;;15.98;9.13;;;5.90;79.30;;;;;;5116227;27;20027;-80
2022/03/03 07:59:35;;;;;;;17.98;9.18;;;6.00;76.50;;;;;;5125118;27;20495;-81
2022/03/03 08:02:17;;;;;;;33.90;10.13;;;6.20;76.60;;;;;;5118131;27;20024;-81
2022/03/03 08:04:49;;;;;;;25.73;10.02;;;6.30;74.80;;;;;;5104188;27;20054;-81
2022/03/03 08:07:20;;;;;;;30.05;9.93;;;6.40;73.80;;;;;;5119870;27;20055;-81
2022/03/03 08:09:49;;;;;;;18.27;9.10;;;6.50;73.10;;;;;;5119787;27;20055;-81
2022/03/03 08:12:40;;;;;;;17.77;9.32;;;6.60;73.10;;;;;;5119511;27;20110;-81
2022/03/03 08:15:11;;;;;;;16.35;9.38;;;6.70;73.40;;;;;;5114140;27;20039;-81
2022/03/03 08:17:51;;;;;;;22.30;9.15;;;6.80;71.90;;;;;;5122333;27;20023;-80
2022/03/03 08:20:26;;;;;;;25.65;9.95;;;6.90;68.60;;;;;;5108249;27;20064;-80
2022/03/03 08:22:53;;;;;;;25.15;10.93;;;7.00;70.00;;;;;;5104144;27;20023;-81
2022/03/03 08:25:22;;;;;;;27.30;11.00;;;7.10;69.40;;;;;;5118111;27;20057;-81
2022/03/03 08:28:24;;;;;;;14.63;9.52;;;7.10;70.30;;;;;;5114311;27;20406;-81
2022/03/03 08:31:05;;;;;;;15.88;10.43;;;7.20;68.70;;;;;;5086417;28;20033;-81
2022/03/03 08:33:59;;;;;;;24.63;13.18;;;7.30;68.30;;;;;;5078283;28;20031;-81
2022/03/03 08:37:23;;;;;;;29.63;16.05;;;7.40;68.70;;;;;;5098503;28;20028;-81
2022/03/03 08:40:01;;;;;;;22.92;15.20;;;7.50;68.90;;;;;;5099471;28;20490;-80
2022/03/03 08:42:56;;;;;;;21.13;13.25;;;7.60;68.50;;;;;;5098510;28;20497;-81
2022/03/03 08:45:34;;;;;;;29.65;12.35;;;7.60;68.30;;;;;;5096401;28;20075;-81
2022/03/03 08:48:10;;;;;;;30.17;12.10;;;7.70;70.60;;;;;;5105565;28;20097;-81
2022/03/03 08:50:42;;;;;;;38.83;13.32;;;7.90;72.80;;;;;;5101528;28;20020;-80
2022/03/03 08:53:09;;;;;;;26.48;12.65;;;7.90;73.20;;;;;;5105510;28;20020;-81
2022/03/03 08:55:37;;;;;;;40.65;14.05;;;7.90;71.40;;;;;;5087792;28;20054;-81
2022/03/03 08:58:45;;;;;;;44.33;13.85;;;8.00;74.70;;;;;;5092648;28;20429;-80
2022/03/03 09:01:04;;;;;;;29.10;14.20;;;8.00;74.00;;;;;;5092865;28;20032;-81
2022/03/03 09:03:30;;;;;;;34.20;14.52;;;8.00;74.30;;;;;;5108517;28;20023;-81
2022/03/03 09:05:56;;;;;;;23.45;15.30;;;8.00;70.50;;;;;;5081517;28;20032;-81
2022/03/03 09:08:33;;;;;;;22.75;15.18;;;8.10;71.70;;;;;;5105911;28;20100;-81
2022/03/03 09:11:08;;;;;;;30.52;16.30;;;8.20;69.80;;;;;;5102448;28;20566;-81
2022/03/03 09:13:43;;;;;;;24.15;16.48;;;8.30;70.50;;;;;;5095160;28;20057;-80
2022/03/03 09:16:38;;;;;;;26.02;15.70;;;8.40;70.80;;;;;;5100744;28;20020;-81
2022/03/03 09:19:40;;;;;;;35.25;16.85;;;8.50;74.50;;;;;;5079427;28;20032;-81
2022/03/03 09:22:28;;;;;;;;;;;;;;;;;;;;;
2022/03/03 09:25:36;;;;;;;33.67;18.52;;;8.50;76.40;;;;;;5012549;28;20028;-80
2022/03/03 09:28:17;;;;;;;24.40;17.10;;;8.60;77.90;;;;;;5070272;28;20044;-80
2022/03/03 09:30:49;;;;;;;38.13;17.15;;;8.70;79.10;;;;;;5122640;27;20035;-81
2022/03/03 09:33:15;;;;;;;37.35;18.27;;;8.80;79.80;;;;;;5107375;27;20054;-81
2022/03/03 09:35:41;;;;;;;24.67;17.83;;;8.90;78.20;;;;;;5125209;27;20501;-81
2022/03/03 09:38:16;;;;;;;33.25;18.75;;;8.90;78.50;;;;;;5105898;27;20019;-80
2022/03/03 09:41:12;;;;;;;29.65;18.05;;;8.90;77.60;;;;;;5120370;27;20024;-80
2022/03/03 09:43:49;;;;;;;28.05;17.92;;;8.90;78.50;;;;;;5114645;27;20027;-80
2022/03/03 09:46:15;;;;;;;37.40;20.88;;;8.90;77.80;;;;;;5126597;27;20134;-81
2022/03/03 09:49:10;;;;;;;136.60;94.80;;;8.90;79.50;;;;;;5118456;27;20060;-80
2022/03/03 09:51:47;;;;;;;308.88;248.43;;;9.00;78.60;;;;;;5071821;27;20095;-81
2022/03/03 09:54:35;;;;;;;37.55;25.85;;;9.10;81.10;;;;;;5120706;27;20695;-80
2022/03/03 09:57:02;;;;;;;35.58;23.83;;;9.00;80.10;;;;;;5100168;27;20043;-80
2022/03/03 09:59:27;;;;;;;43.80;28.48;;;9.00;80.10;;;;;;5099312;27;20020;-80
2022/03/03 10:02:42;;;;;;;54.97;40.67;;;8.90;84.60;;;;;;5123796;27;20080;-80
2022/03/03 10:08:30;;;;;;;30.17;18.98;;;8.80;85.50;;;;;;5124696;27;20042;-80
2022/03/03 10:11:10;;;;;;;34.30;24.27;;;8.70;83.80;;;;;;5119376;27;20282;-80
2022/03/03 10:14:03;;;;;;;28.80;18.38;;;8.70;83.50;;;;;;5118331;27;20096;-80
2022/03/03 10:16:30;;;;;;;;;;;8.90;81.30;;;;;;5121899;27;20087;-80
2022/03/03 10:19:03;;;;;;;180.15;126.85;;;8.90;84.00;;;;;;5108359;27;20395;-80
2022/03/03 10:21:41;;;;;;;31.42;20.08;;;9.00;84.70;;;;;;5124783;27;20042;-80
2022/03/03 10:24:55;;;;;;;29.42;18.52;;;9.00;83.30;;;;;;5125689;27;20019;-82
2022/03/03 10:27:53;;;;;;;33.25;19.52;;;8.90;84.00;;;;;;5108658;27;20039;-80
2022/03/03 10:30:24;;;;;;;27.45;19.42;;;8.90;84.00;;;;;;5110558;27;20186;-80
2022/03/03 10:32:56;;;;;;;30.35;21.50;;;8.90;83.70;;;;;;5119784;27;20023;-80
2022/03/03 10:35:24;;;;;;;32.42;20.90;;;8.90;85.60;;;;;;5127042;27;20037;-80
2022/03/03 10:38:17;;;;;;;30.52;20.30;;;9.00;85.10;;;;;;5123977;27;20098;-80
2022/03/03 10:40:43;;;;;;;36.90;20.52;;;9.10;86.90;;;;;;5120151;27;20024;-81
2022/03/03 10:43:20;;;;;;;45.45;26.65;;;9.30;86.20;;;;;;5111593;27;20023;-80
2022/03/03 10:46:03;;;;;;;671.47;576.63;;;9.40;85.20;;;;;;5122800;27;20142;-80
2022/03/03 10:48:40;;;;;;;38.08;24.50;;;9.40;87.90;;;;;;5125998;27;20039;-80
2022/03/03 10:51:19;;;;;;;39.67;23.15;;;9.30;86.40;;;;;;5120053;27;20104;-80
2022/03/03 10:54:20;;;;;;;37.22;23.48;;;9.20;87.60;;;;;;5112011;27;20059;-80
2022/03/03 10:56:48;;;;;;;46.88;29.13;;;9.30;87.90;;;;;;5080043;27;20039;-80
2022/03/03 10:59:43;;;;;;;87.70;65.15;;;9.30;88.20;;;;;;5119701;27;20590;-80
2022/03/03 11:02:16;;;;;;;37.72;25.83;;;9.40;89.60;;;;;;5084830;27;20519;-80
2022/03/03 11:04:45;;;;;;;35.72;24.85;;;9.50;86.50;;;;;;5116097;27;20028;-80
2022/03/03 11:07:21;;;;;;;38.05;25.02;;;9.30;85.50;;;;;;5120331;27;20110;-80
2022/03/03 11:12:35;;;;;;;72.63;46.15;;;9.40;84.20;;;;;;5069781;27;20023;-80
2022/03/03 11:15:03;;;;;;;190.65;122.25;;;9.40;82.00;;;;;;5126958;27;20026;-80
2022/03/03 11:17:32;;;;;;;38.15;26.50;;;9.40;84.10;;;;;;5101870;27;20289;-80
2022/03/03 11:20:01;;;;;;;50.10;33.65;;;9.30;82.30;;;;;;5107104;27;20026;-80
2022/03/03 11:22:31;;;;;;;50.03;30.02;;;9.20;84.30;;;;;;5120342;27;20003;-80
2022/03/03 11:24:59;;;;;;;41.47;28.15;;;9.20;84.50;;;;;;5118085;27;20068;-80
2022/03/03 11:27:45;;;;;;;37.38;26.73;;;9.40;84.30;;;;;;5101814;27;20063;-80
2022/03/03 11:30:30;;;;;;;31.50;22.80;;;9.40;82.30;;;;;;5119475;27;20439;-80
2022/03/03 11:33:43;;;;;;;32.83;23.55;;;9.50;82.60;;;;;;5123175;27;20027;-80
2022/03/03 11:36:25;;;;;;;36.67;23.48;;;9.40;81.90;;;;;;5100520;28;20120;-80
2022/03/03 11:39:14;;;;;;;32.72;23.45;;;9.60;79.40;;;;;;5101309;28;20231;-81
2022/03/03 11:41:49;;;;;;;419.35;275.70;;;9.60;77.90;;;;;;5104840;28;20027;-80
2022/03/03 11:44:31;;;;;;;110.30;69.95;;;9.60;78.40;;;;;;5127099;27;20023;-80
2022/03/03 11:46:57;;;;;;;41.10;22.70;;;9.70;77.30;;;;;;5101849;27;20031;-81
2022/03/03 11:49:47;;;;;;;40.78;25.40;;;9.40;76.80;;;;;;5124224;27;20058;-80
2022/03/03 11:52:38;;;;;;;44.08;27.33;;;9.30;83.00;;;;;;5100829;27;20493;-80
2022/03/03 11:55:55;;;;;;;35.60;20.98;;;9.20;84.40;;;;;;5124583;27;20035;-80
2022/03/03 11:58:38;;;;;;;28.58;18.02;;;9.10;85.60;;;;;;5105312;27;20477;-80
2022/03/03 12:01:29;;;;;;;35.03;22.77;;;9.10;88.60;;;;;;5100362;28;20031;-81
2022/03/03 12:04:41;;;;;;;32.58;18.48;;;9.00;86.50;;;;;;5121090;27;20025;-81
2022/03/03 12:07:29;;;;;;;33.85;21.88;;;9.10;88.10;;;;;;5080030;27;20115;-79
2022/03/03 12:09:59;;;;;;;32.50;19.33;;;9.30;87.20;;;;;;5105490;27;20108;-80
2022/03/03 12:12:52;;;;;;;30.08;20.00;;;9.40;86.20;;;;;;5119554;27;20019;-80
2022/03/03 12:15:21;;;;;;;27.60;19.48;;;9.30;88.90;;;;;;5109816;27;20027;-81
2022/03/03 12:18:00;;;;;;;27.90;17.88;;;9.50;87.70;;;;;;5118849;27;20020;-80
2022/03/03 12:20:45;;;;;;;28.27;18.85;;;9.80;90.40;;;;;;5110309;27;20151;-80
2022/03/03 12:23:35;;;;;;;33.25;19.65;;;9.90;84.50;;;;;;5103960;28;20033;-81
2022/03/03 12:26:05;;;;;;;28.27;21.15;;;9.70;90.20;;;;;;5119253;27;20024;-81
2022/03/03 12:28:34;;;;;;;31.67;19.90;;;10.60;86.90;;;;;;5123885;27;20464;-81
2022/03/03 12:31:00;;;;;;;30.45;23.15;;;13.60;81.20;;;;;;5105732;28;20055;-82
2022/03/03 12:33:35;;;;;;;29.63;22.25;;;15.70;75.80;;;;;;5101584;28;20400;-81
2022/03/03 12:36:10;;;;;;;33.33;23.25;;;16.50;71.30;;;;;;5119147;27;20022;-80
2022/03/03 12:38:36;;;;;;;34.05;23.63;;;17.00;71.30;;;;;;5115653;28;20059;-80
2022/03/03 12:41:38;;;;;;;37.03;22.75;;;17.10;68.60;;;;;;5118571;27;20055;-80
2022/03/03 12:44:14;;;;;;;32.75;24.08;;;17.80;67.30;;;;;;5114018;28;20051;-80
2022/03/03 12:47:04;;;;;;;36.38;27.73;;;17.30;68.60;;;;;;5119391;28;20486;-80
2022/03/03 12:49:33;;;;;;;35.28;25.17;;;17.30;67.30;;;;;;5115846;28;20098;-81
2022/03/03 12:52:03;;;;;;;37.28;28.48;;;17.50;68.10;;;;;;5116094;28;20024;-80
2022/03/03 12:54:36;;;;;;;38.38;26.42;;;18.30;64.90;;;;;;5116101;28;20072;-80
2022/03/03 12:57:05;;;;;;;34.47;23.65;;;17.50;64.40;;;;;;5116308;28;20036;-80
2022/03/03 12:59:36;;;;;;;36.75;25.23;;;17.80;64.40;;;;;;5122361;28;20018;-80
2022/03/03 13:02:03;;;;;;;49.33;29.48;;;18.40;62.50;;;;;;5116826;28;20124;-81
2022/03/03 13:04:28;;;;;;;43.30;29.83;;;18.50;58.60;;;;;;5123891;27;20090;-80
2022/03/03 13:07:08;;;;;;;40.55;30.02;;;18.00;59.40;;;;;;5120754;28;20030;-80
2022/03/03 13:09:42;;;;;;;46.67;30.95;;;18.40;57.30;;;;;;5116790;28;20512;-81
2022/03/03 13:12:11;;;;;;;41.80;32.10;;;18.30;56.60;;;;;;5119787;28;20016;-81
2022/03/03 13:14:37;;;;;;;46.25;30.58;;;18.20;57.00;;;;;;5123270;27;20169;-81
2022/03/03 13:17:09;;;;;;;47.50;33.90;;;19.20;57.10;;;;;;5102750;28;20019;-81
2022/03/03 13:19:54;;;;;;;48.53;32.80;;;19.60;55.10;;;;;;5117563;28;20019;-81
2022/03/03 13:22:38;;;;;;;45.10;32.92;;;20.20;53.90;;;;;;5122303;27;20034;-81
2022/03/03 13:25:19;;;;;;;37.92;30.08;;;20.10;53.70;;;;;;5125591;27;20105;-80
2022/03/03 13:27:47;;;;;;;51.45;35.35;;;20.90;53.80;;;;;;5111289;28;20020;-81
2022/03/03 13:30:19;;;;;;;41.33;31.55;;;21.60;50.10;;;;;;5104319;28;20467;-81
2022/03/03 13:33:02;;;;;;;43.63;33.10;;;21.40;52.10;;;;;;5123448;27;20015;-81
2022/03/03 13:35:43;;;;;;;;;;;20.80;52.40;;;;;;5113485;27;20031;-82
2022/03/03 13:38:09;;;;;;;44.92;34.75;;;21.10;51.20;;;;;;5124465;27;19907;-83
2022/03/03 13:40:47;;;;;;;46.88;33.97;;;21.40;49.70;;;;;;5119298;27;20363;-79
2022/03/03 13:43:30;;;;;;;51.03;35.83;;;22.00;49.70;;;;;;5124551;27;20015;-80
2022/03/03 13:46:00;;;;;;;57.20;34.80;;;22.50;47.60;;;;;;5107628;27;20370;-81
2022/03/03 13:48:38;;;;;;;47.92;37.92;;;23.30;48.10;;;;;;5122238;27;20039;-81
2022/03/03 13:51:07;;;;;;;49.33;38.03;;;23.90;46.60;;;;;;5120927;27;20470;-81
2022/03/03 13:53:54;;;;;;;50.50;37.08;;;23.70;46.90;;;;;;5124052;27;20039;-83
2022/03/03 13:56:29;;;;;;;48.25;36.63;;;24.60;45.40;;;;;;5103922;27;20035;-81
2022/03/03 13:59:09;;;;;;;43.47;35.03;;;24.20;44.90;;;;;;5119171;27;20122;-80
2022/03/03 14:01:39;;;;;;;48.58;34.13;;;24.80;43.70;;;;;;5123532;27;20123;-81
2022/03/03 14:04:20;;;;;;;48.25;38.08;;;24.30;43.90;;;;;;5127841;27;20019;-82
2022/03/03 14:06:47;;;;;;;50.53;38.72;;;25.60;43.40;;;;;;5115912;27;20024;-81
2022/03/03 14:09:24;;;;;;;51.95;34.72;;;25.20;43.00;;;;;;5116390;27;20152;-82
2022/03/03 14:11:52;;;;;;;45.10;36.17;;;23.50;43.40;;;;;;5117391;27;20055;-79
2022/03/03 14:14:22;;;;;;;47.33;35.42;;;23.00;44.50;;;;;;5115452;27;20431;-79
2022/03/03 14:16:49;;;;;;;45.97;35.72;;;22.00;46.50;;;;;;5124163;27;20019;-77
2022/03/03 14:19:41;;;;;;;45.28;34.95;;;21.70;47.90;;;;;;5121455;27;20019;-77
2022/03/03 14:22:28;;;;;;;44.08;33.33;;;21.80;49.10;;;;;;5112089;27;20490;-79
2022/03/03 14:24:54;;;;;;;48.60;34.33;;;22.20;46.80;;;;;;5121954;27;20118;-79
2022/03/03 14:27:20;;;;;;;45.78;32.35;;;21.50;48.10;;;;;;5105843;27;20025;-81
2022/03/03 14:29:48;;;;;;;52.20;33.72;;;21.80;46.50;;;;;;5120994;27;20067;-79
2022/03/03 14:32:14;;;;;;;40.65;32.50;;;22.20;48.00;;;;;;5124127;27;20019;-82
2022/03/03 14:34:40;;;;;;;43.20;31.58;;;22.50;46.90;;;;;;5112822;27;20106;-81
2022/03/03 14:37:06;;;;;;;43.88;32.45;;;22.60;47.20;;;;;;5119459;27;21032;-81
2022/03/03 14:39:33;;;;;;;45.03;33.38;;;22.70;46.90;;;;;;5116659;27;20019;-80
2022/03/03 14:42:00;;;;;;;45.30;33.53;;;22.60;46.60;;;;;;5119285;27;20030;-81
2022/03/03 14:44:29;;;;;;;46.10;33.38;;;22.80;44.30;;;;;;5118371;27;20505;-79
2022/03/03 14:46:55;;;;;;;45.38;34.00;;;22.90;45.00;;;;;;5123118;27;20988;-78
2022/03/03 14:49:21;;;;;;;51.78;34.95;;;22.90;44.20;;;;;;5121076;27;20802;-79
2022/03/03 14:51:47;;;;;;;49.40;35.60;;;21.20;44.80;;;;;;5122661;27;20023;-79
2022/03/03 14:54:16;;;;;;;51.28;37.03;;;20.70;46.10;;;;;;5126324;27;20023;-78
2022/03/03 14:56:41;;;;;;;49.88;35.03;;;20.80;46.70;;;;;;5101547;27;20028;-78
2022/03/03 14:59:32;;;;;;;55.50;35.97;;;20.20;47.30;;;;;;5119511;27;20031;-79
2022/03/03 15:02:04;;;;;;;48.92;35.10;;;20.60;47.70;;;;;;5117693;27;20047;-79
2022/03/03 15:04:30;;;;;;;51.80;36.50;;;22.20;45.90;;;;;;5118227;27;20030;-81
2022/03/03 15:06:59;;;;;;;48.63;38.25;;;22.10;45.10;;;;;;5104692;27;20493;-79
2022/03/03 15:09:38;;;;;;;56.38;41.70;;;21.40;45.60;;;;;;5119555;27;20032;-79
2022/03/03 15:12:04;;;;;;;52.30;39.50;;;20.40;46.40;;;;;;5118659;27;20019;-79
2022/03/03 15:14:33;;;;;;;60.80;40.13;;;19.70;48.20;;;;;;5121694;27;20027;-79
2022/03/03 15:16:59;;;;;;;53.97;39.05;;;20.40;47.90;;;;;;5117768;27;20092;-79
2022/03/03 15:19:25;;;;;;;58.22;40.17;;;20.50;46.90;;;;;;5119167;27;20478;-81
2022/03/03 15:21:57;;;;;;;52.80;39.15;;;20.10;46.80;;;;;;5122481;27;20079;-80
2022/03/03 15:24:32;;;;;;;53.05;39.13;;;20.00;47.30;;;;;;5116765;27;20111;-79
2022/03/03 15:27:01;;;;;;;60.88;39.30;;;19.30;48.00;;;;;;5100898;28;20068;-78
2022/03/03 15:29:29;;;;;;;51.25;39.58;;;18.70;48.80;;;;;;5116971;27;20079;-78
2022/03/03 15:31:57;;;;;;;64.53;43.70;;;18.90;49.20;;;;;;5122159;27;20496;-78
2022/03/03 15:37:23;;;;;;;54.22;42.25;;;18.30;49.90;;;;;;5096212;27;20478;-78
2022/03/03 15:39:50;;;;;;;55.88;42.88;;;17.50;51.30;;;;;;5119282;27;20423;-78
2022/03/03 15:42:17;;;;;;;60.53;42.60;;;16.50;52.80;;;;;;5122879;27;20054;-79
2022/03/03 15:44:44;;;;;;;66.57;43.65;;;15.70;54.80;;;;;;5101910;27;20026;-77
2022/03/03 15:47:10;;;;;;;63.63;43.08;;;14.90;56.70;;;;;;5121173;27;20069;-78
2022/03/03 15:49:36;;;;;;;61.60;42.75;;;14.70;57.40;;;;;;5120141;27;20024;-78
2022/03/03 15:52:05;;;;;;;63.13;45.42;;;15.10;57.00;;;;;;5122344;27;20019;-79
2022/03/03 15:54:34;;;;;;;67.00;42.13;;;15.60;56.10;;;;;;5123057;27;20020;-78
2022/03/03 15:57:01;;;;;;;63.28;42.88;;;16.10;54.60;;;;;;5098512;27;20027;-79
2022/03/03 15:59:30;;;;;;;66.55;42.40;;;16.80;53.70;;;;;;5098265;27;20042;-80
2022/03/03 16:01:56;;;;;;;58.17;41.97;;;17.50;52.90;;;;;;5121417;27;20023;-77
2022/03/03 16:04:23;;;;;;;55.42;42.40;;;17.90;52.10;;;;;;5100048;27;20019;-77
2022/03/03 16:06:54;;;;;;;61.20;41.38;;;17.60;51.90;;;;;;5121477;27;20055;-78
2022/03/03 16:09:37;;;;;;;63.50;41.42;;;17.40;52.70;;;;;;5118972;27;20484;-78
2022/03/03 16:12:14;;;;;;;61.67;42.72;;;17.00;53.40;;;;;;5117596;27;20399;-77
2022/03/03 16:14:56;;;;;;;58.45;40.50;;;17.10;54.00;;;;;;5115142;27;20059;-82
2022/03/03 16:17:25;;;;;;;;;;;16.90;54.60;;;;;;5128406;27;20043;-81
2022/03/03 16:20:31;;;;;;;64.13;43.65;;;16.10;56.30;;;;;;5119509;27;19910;-82
2022/03/03 16:23:00;;;;;;;62.78;43.20;;;15.40;57.80;;;;;;5112143;27;20076;-81
2022/03/03 16:25:32;;;;;;;65.50;40.20;;;14.50;58.30;;;;;;5116830;27;20106;-82
2022/03/03 16:27:58;;;;;;;68.25;38.15;;;13.80;61.60;;;;;;5123140;27;20058;-81
2022/03/03 16:30:32;;;;;;;64.15;39.83;;;12.90;64.20;;;;;;5108116;27;20126;-80
2022/03/03 16:33:02;;;;;;;75.57;42.55;;;11.90;66.80;;;;;;5099703;28;20051;-80
2022/03/03 16:35:28;;;;;;;78.63;44.42;;;11.20;69.30;;;;;;5103409;28;20108;-81
2022/03/03 16:37:57;;;;;;;76.22;40.95;;;10.60;71.60;;;;;;5100112;28;20020;-80
2022/03/03 16:40:24;;;;;;;72.85;39.92;;;10.30;73.50;;;;;;5082351;28;20031;-81
2022/03/03 16:42:50;;;;;;;76.40;39.13;;;10.00;75.00;;;;;;5097588;28;20036;-82
2022/03/03 16:45:16;;;;;;;75.25;39.88;;;9.70;75.60;;;;;;5103268;28;20467;-81
2022/03/03 16:47:57;;;;;;;71.03;38.63;;;9.50;75.60;;;;;;5097018;28;20023;-81
2022/03/03 16:50:29;;;;;;;60.30;38.33;;;9.40;74.40;;;;;;5086175;28;20028;-81
2022/03/03 16:52:58;;;;;;;77.65;43.90;;;9.30;75.60;;;;;;5097784;28;20017;-81
2022/03/03 16:55:25;;;;;;;67.72;40.25;;;9.20;79.70;;;;;;5102616;28;20051;-81
2022/03/03 16:57:56;;;;;;;55.50;36.58;;;8.90;86.40;;;;;;5099508;28;20509;-81
2022/03/03 17:00:22;;;;;;;52.28;36.53;;;8.70;92.90;;;;;;5086516;28;20279;-82
2022/03/03 17:02:50;;;;;;;60.47;37.10;;;8.50;97.80;;;;;;5098599;28;20024;-81
2022/03/03 17:05:19;;;;;;;64.20;40.85;;;8.40;99.90;;;;;;5089769;28;20375;-81
2022/03/03 17:07:50;;;;;;;63.10;40.35;;;8.30;91.80;;;;;;5104490;28;20032;-82
2022/03/03 17:10:16;;;;;;;69.27;41.03;;;8.30;88.10;;;;;;5076081;28;20027;-81
2022/03/03 17:12:42;;;;;;;100.90;60.10;;;8.40;90.50;;;;;;5103897;28;20027;-82
2022/03/03 17:15:14;;;;;;;75.50;40.92;;;8.40;92.50;;;;;;5108806;28;20098;-81
2022/03/03 17:17:40;;;;;;;78.00;41.60;;;8.40;93.90;;;;;;5086323;28;20030;-83
2022/03/03 17:20:07;;;;;;;78.68;45.35;;;8.30;94.10;;;;;;5102186;28;20023;-81
2022/03/03 17:22:33;;;;;;;73.20;44.20;;;8.30;94.00;;;;;;5102559;28;20020;-82
2022/03/03 17:24:59;;;;;;;68.97;41.17;;;8.10;98.60;;;;;;5087556;28;20024;-81
2022/03/03 17:27:30;;;;;;;61.70;39.65;;;7.90;99.90;;;;;;5105715;28;20535;-81
2022/03/03 17:30:24;;;;;;;67.10;41.10;;;7.80;99.90;;;;;;5099233;27;20146;-82
2022/03/03 17:33:11;;;;;;;59.65;41.75;;;7.60;99.90;;;;;;5109372;27;20072;-81
2022/03/03 17:36:08;;;;;;;59.33;39.17;;;7.60;99.90;;;;;;5120600;27;20413;-82
2022/03/03 17:38:38;;;;;;;59.83;39.90;;;7.40;99.90;;;;;;5115260;27;20024;-81
2022/03/03 17:41:07;;;;;;;58.85;39.35;;;7.30;99.90;;;;;;5126425;27;20054;-82
2022/03/03 17:43:36;;;;;;;57.38;38.28;;;7.20;99.90;;;;;;5119587;27;20085;-81
2022/03/03 17:46:06;;;;;;;55.75;37.53;;;7.10;99.90;;;;;;5121053;27;20051;-82
2022/03/03 17:48:35;;;;;;;55.88;38.75;;;7.00;99.90;;;;;;5125094;27;20481;-82
2022/03/03 17:51:04;;;;;;;63.03;41.88;;;7.00;99.90;;;;;;5120873;27;20027;-82
2022/03/03 17:53:33;;;;;;;68.60;41.30;;;6.90;99.90;;;;;;5109349;27;20023;-82
2022/03/03 17:56:09;;;;;;;59.90;41.35;;;6.80;99.90;;;;;;5122297;27;20019;-81
2022/03/03 17:58:38;;;;;;;68.78;43.17;;;6.80;99.90;;;;;;5114722;27;20023;-82
2022/03/03 18:01:04;;;;;;;104.03;59.08;;;6.70;99.90;;;;;;5126186;27;20023;-82
2022/03/03 18:03:42;;;;;;;116.25;61.67;;;6.50;99.90;;;;;;5117461;27;20501;-83
2022/03/03 18:06:08;;;;;;;115.90;60.65;;;6.40;99.90;;;;;;5119135;27;20020;-82
2022/03/03 18:08:37;;;;;;;118.68;60.08;;;6.30;99.90;;;;;;5102727;27;20059;-83
2022/03/03 18:11:27;;;;;;;110.43;58.30;;;6.20;99.90;;;;;;5103130;28;20023;-82
2022/03/03 18:13:55;;;;;;;104.35;58.35;;;6.10;99.90;;;;;;5122899;27;20027;-81
2022/03/03 18:16:21;;;;;;;107.38;58.85;;;6.00;99.90;;;;;;5120142;27;20057;-81
2022/03/03 18:18:50;;;;;;;107.85;56.97;;;5.90;99.90;;;;;;5122601;27;20027;-82
2022/03/03 18:21:21;;;;;;;94.85;55.75;;;5.80;99.90;;;;;;5120253;27;20093;-82
2022/03/03 18:24:16;;;;;;;97.43;55.30;;;5.70;99.90;;;;;;5104318;28;20401;-82
2022/03/03 18:26:46;;;;;;;103.13;52.83;;;5.60;99.90;;;;;;5114053;27;20032;-82
2022/03/03 18:29:38;;;;;;;89.78;55.65;;;5.60;99.90;;;;;;5120378;27;20096;-82
2022/03/03 18:32:04;;;;;;;99.57;55.87;;;5.50;99.90;;;;;;5109170;27;20085;-81
2022/03/03 18:34:35;;;;;;;95.38;54.92;;;5.50;99.90;;;;;;5120516;27;20090;-81